Time;durP1;ratioP1;P1;durP2;ratioP2;P2;SDS_P1;SDS_P2;PMS_P1;PMS_P2;Temp;Humidity;BMP_temperature;BMP_pressure;BME280_temperature;BME280_humidity;BME280_pressure;Samples;Min_cycle;Max_cycle;Signal;HPM_P1;HPM_P2
2022/12/05 00:01:20;;;;;;;15.23;9.77;;;17.20;50.30;;;;;;5014954;28;20203;-69
2022/12/05 00:03:49;;;;;;;13.48;9.43;;;17.20;50.30;;;;;;5015772;28;20268;-69
2022/12/05 00:06:17;;;;;;;13.30;9.45;;;17.20;50.40;;;;;;5016764;28;20232;-68
2022/12/05 00:08:46;;;;;;;13.95;9.55;;;17.20;50.40;;;;;;5015693;28;20221;-68
2022/12/05 00:11:14;;;;;;;11.20;8.98;;;17.20;50.40;;;;;;5015618;28;20255;-68
2022/12/05 00:13:41;;;;;;;12.52;8.38;;;17.20;50.40;;;;;;5015466;28;20522;-68
2022/12/05 00:16:09;;;;;;;14.93;9.27;;;17.10;50.30;;;;;;5015610;28;20204;-68
2022/12/05 00:18:37;;;;;;;12.50;8.93;;;17.10;50.30;;;;;;5015056;28;20311;-68
2022/12/05 00:21:06;;;;;;;14.88;8.70;;;17.10;50.40;;;;;;5014991;28;20201;-68
2022/12/05 00:23:33;;;;;;;11.63;8.48;;;17.10;50.20;;;;;;5014671;28;20220;-68
2022/12/05 00:26:02;;;;;;;12.50;9.05;;;17.00;50.10;;;;;;5015992;28;20204;-68
2022/12/05 00:28:29;;;;;;;11.90;8.30;;;17.10;50.40;;;;;;5014687;28;20622;-68
2022/12/05 00:30:56;;;;;;;12.02;8.75;;;17.10;50.20;;;;;;5015938;28;20189;-68
2022/12/05 00:33:22;;;;;;;11.85;8.48;;;17.00;50.20;;;;;;5014735;28;20273;-68
2022/12/05 00:35:50;;;;;;;9.35;7.75;;;17.00;50.20;;;;;;5014784;28;20657;-68
2022/12/05 00:38:18;;;;;;;13.00;9.15;;;17.00;50.20;;;;;;5014648;28;20535;-68
2022/12/05 00:40:45;;;;;;;11.50;8.57;;;17.00;50.10;;;;;;5014421;28;20200;-68
2022/12/05 00:43:12;;;;;;;11.27;8.30;;;17.00;50.00;;;;;;5014429;28;20209;-68
2022/12/05 00:45:39;;;;;;;12.10;8.57;;;17.00;50.10;;;;;;5015328;28;20588;-68
2022/12/05 00:48:06;;;;;;;12.60;8.70;;;17.00;49.90;;;;;;5014700;28;20656;-68
2022/12/05 00:50:33;;;;;;;11.52;8.07;;;17.00;49.90;;;;;;5014095;28;20631;-68
2022/12/05 00:53:01;;;;;;;9.85;7.95;;;17.00;50.00;;;;;;5014244;28;20203;-68
2022/12/05 00:55:30;;;;;;;10.15;7.97;;;16.90;49.80;;;;;;5015101;28;20193;-68
2022/12/05 00:57:58;;;;;;;11.80;8.70;;;16.90;49.90;;;;;;5014312;28;20211;-68
2022/12/05 01:00:25;;;;;;;10.82;7.95;;;16.90;49.70;;;;;;5014414;28;20570;-68
2022/12/05 01:02:52;;;;;;;10.10;8.45;;;16.90;49.60;;;;;;5014693;28;20702;-68
2022/12/05 01:05:19;;;;;;;12.27;8.68;;;16.90;49.60;;;;;;5014677;28;20243;-68
2022/12/05 01:07:46;;;;;;;13.00;8.52;;;16.90;49.60;;;;;;5015348;28;20303;-68
2022/12/05 01:10:13;;;;;;;10.23;8.18;;;16.90;49.70;;;;;;5014512;28;20217;-68
2022/12/05 01:12:42;;;;;;;11.25;8.63;;;16.80;49.50;;;;;;5013852;28;20215;-68
2022/12/05 01:15:10;;;;;;;11.15;7.82;;;16.80;49.50;;;;;;5015542;28;20230;-68
2022/12/05 01:17:37;;;;;;;10.35;7.55;;;16.90;49.60;;;;;;5016029;28;20283;-69
2022/12/05 01:20:05;;;;;;;11.25;8.00;;;16.90;49.70;;;;;;5015072;28;20217;-68
2022/12/05 01:22:32;;;;;;;11.38;8.63;;;16.80;49.50;;;;;;5014921;28;20217;-68
2022/12/05 01:24:59;;;;;;;11.25;7.43;;;16.80;49.40;;;;;;5014948;28;20193;-68
2022/12/05 01:27:27;;;;;;;11.82;8.82;;;16.80;49.40;;;;;;5014019;28;20226;-68
2022/12/05 01:29:57;;;;;;;10.57;7.57;;;16.80;49.60;;;;;;5014131;28;20218;-68
2022/12/05 01:32:24;;;;;;;10.18;8.40;;;16.80;49.50;;;;;;5015077;28;20189;-68
2022/12/05 01:34:51;;;;;;;8.88;7.47;;;16.80;49.40;;;;;;5013770;28;20610;-68
2022/12/05 01:37:18;;;;;;;9.20;7.60;;;16.80;49.60;;;;;;5014051;28;20197;-68
2022/12/05 01:39:45;;;;;;;9.32;7.43;;;16.80;49.40;;;;;;5013421;28;20305;-68
2022/12/05 01:42:12;;;;;;;9.77;7.57;;;16.70;49.50;;;;;;5013439;28;20201;-68
2022/12/05 01:45:16;;;;;;;9.95;7.45;;;16.70;49.50;;;;;;5013520;28;20207;-68
2022/12/05 01:47:43;;;;;;;10.07;7.38;;;16.70;49.50;;;;;;5013242;28;20208;-68
2022/12/05 01:50:10;;;;;;;9.30;7.65;;;16.70;49.60;;;;;;5013423;28;20244;-68
2022/12/05 01:52:37;;;;;;;10.52;7.78;;;16.70;49.60;;;;;;5014213;28;20196;-68
2022/12/05 01:55:07;;;;;;;9.98;7.47;;;16.70;49.60;;;;;;5013396;28;20193;-68
2022/12/05 01:57:33;;;;;;;10.23;7.68;;;16.70;49.60;;;;;;5013043;28;20193;-68
2022/12/05 02:00:04;;;;;;;11.25;7.63;;;16.70;49.70;;;;;;5013222;28;20217;-68
2022/12/05 02:02:40;;;;;;;10.57;7.30;;;16.70;49.80;;;;;;5014702;28;20209;-68
2022/12/05 02:05:09;;;;;;;9.00;7.50;;;16.70;49.60;;;;;;5013120;28;20210;-68
2022/12/05 02:07:37;;;;;;;10.30;7.55;;;16.60;49.60;;;;;;5014451;28;20533;-68
2022/12/05 02:10:06;;;;;;;9.48;7.50;;;16.70;49.80;;;;;;5013388;28;20220;-68
2022/12/05 02:12:33;;;;;;;8.77;6.72;;;16.60;49.70;;;;;;5013017;28;20196;-68
2022/12/05 02:15:08;;;;;;;10.07;7.57;;;16.60;49.70;;;;;;5014389;28;20189;-68
2022/12/05 02:17:42;;;;;;;8.40;6.85;;;16.60;49.80;;;;;;5013070;28;20640;-68
2022/12/05 02:20:17;;;;;;;9.00;6.70;;;16.60;49.70;;;;;;5013013;28;20216;-68
2022/12/05 02:23:10;;;;;;;9.02;7.57;;;16.60;49.90;;;;;;5013899;28;20207;-68
2022/12/05 02:26:01;;;;;;;8.55;6.75;;;16.60;49.90;;;;;;5015642;28;20219;-68
2022/12/05 02:28:57;;;;;;;8.68;6.63;;;16.50;50.40;;;;;;5015107;28;20208;-69
2022/12/05 02:31:27;;;;;;;8.10;7.07;;;16.60;49.90;;;;;;4989932;28;20224;-69
2022/12/05 02:33:59;;;;;;;8.32;6.63;;;16.50;49.90;;;;;;5018025;28;20197;-68
2022/12/05 02:36:30;;;;;;;9.63;7.03;;;16.50;49.70;;;;;;5016973;28;20683;-68
2022/12/05 02:39:00;;;;;;;8.57;7.32;;;16.50;49.80;;;;;;5016688;28;20220;-68
2022/12/05 02:41:28;;;;;;;8.90;7.38;;;16.50;49.90;;;;;;5017173;28;20197;-68
2022/12/05 02:43:56;;;;;;;11.13;7.18;;;16.50;49.80;;;;;;5018378;28;20259;-68
2022/12/05 02:46:24;;;;;;;8.70;7.05;;;16.50;49.90;;;;;;5017730;28;20201;-68
2022/12/05 02:48:55;;;;;;;9.13;6.82;;;16.50;49.90;;;;;;5017514;28;20718;-68
2022/12/05 02:51:24;;;;;;;9.38;6.93;;;16.40;49.70;;;;;;5018268;28;20204;-68
2022/12/05 02:53:51;;;;;;;9.50;6.75;;;16.50;49.90;;;;;;5016969;28;20217;-68
2022/12/05 02:56:18;;;;;;;8.18;6.72;;;16.40;50.00;;;;;;5017834;28;20189;-68
2022/12/05 02:58:48;;;;;;;7.95;6.32;;;16.40;49.80;;;;;;5016945;28;20220;-68
2022/12/05 03:01:15;;;;;;;10.13;7.47;;;16.40;49.90;;;;;;5016923;28;20204;-68
2022/12/05 03:03:42;;;;;;;9.60;7.32;;;16.40;50.00;;;;;;5016830;28;20279;-68
2022/12/05 03:06:13;;;;;;;9.63;7.10;;;16.40;50.00;;;;;;5016220;28;20197;-68
2022/12/05 03:08:42;;;;;;;8.07;6.88;;;16.40;50.00;;;;;;5016238;28;20655;-68
2022/12/05 03:11:09;;;;;;;9.63;7.03;;;16.40;50.00;;;;;;5017000;28;20197;-68
2022/12/05 03:13:38;;;;;;;9.38;7.00;;;16.40;50.10;;;;;;5017764;28;20196;-68
2022/12/05 03:16:07;;;;;;;8.00;6.80;;;16.40;50.00;;;;;;5016446;28;20197;-68
2022/12/05 03:18:36;;;;;;;8.38;6.60;;;16.30;50.00;;;;;;5016019;28;20228;-69
2022/12/05 03:21:04;;;;;;;7.32;6.40;;;16.40;50.00;;;;;;5015785;28;20693;-68
2022/12/05 03:23:34;;;;;;;8.70;6.97;;;16.30;49.90;;;;;;5015343;28;20227;-68
2022/12/05 03:26:10;;;;;;;8.85;6.68;;;16.30;49.80;;;;;;5015641;28;20196;-68
2022/12/05 03:28:43;;;;;;;8.35;6.95;;;16.30;49.90;;;;;;5016791;28;20213;-68
2022/12/05 03:31:13;;;;;;;8.80;6.82;;;16.30;49.90;;;;;;5015574;28;20200;-68
2022/12/05 03:33:41;;;;;;;8.77;6.65;;;16.30;49.80;;;;;;5015674;28;20200;-68
2022/12/05 03:36:11;;;;;;;8.20;6.72;;;16.30;49.90;;;;;;5014529;28;20208;-68
2022/12/05 03:38:44;;;;;;;8.90;6.82;;;16.30;49.90;;;;;;5015875;28;20578;-68
2022/12/05 03:41:14;;;;;;;7.80;6.50;;;16.30;49.90;;;;;;5017161;28;20181;-68
2022/12/05 03:43:45;;;;;;;8.88;7.20;;;16.30;49.90;;;;;;5015421;28;20220;-68
2022/12/05 03:46:14;;;;;;;8.57;6.53;;;16.30;49.90;;;;;;5015411;28;20299;-68
2022/12/05 03:48:46;;;;;;;8.68;6.55;;;16.30;49.90;;;;;;5015637;28;20588;-68
2022/12/05 03:51:13;;;;;;;8.25;6.63;;;16.30;50.00;;;;;;5015166;28;20208;-68
2022/12/05 03:53:44;;;;;;;9.10;6.60;;;16.30;49.90;;;;;;5015247;28;20613;-68
2022/12/05 03:56:12;;;;;;;7.75;6.32;;;16.30;49.90;;;;;;5015569;28;20189;-68
2022/12/05 03:58:43;;;;;;;8.18;6.35;;;16.30;50.00;;;;;;5016214;28;20775;-68
2022/12/05 04:01:10;;;;;;;8.48;6.22;;;16.30;49.90;;;;;;5016038;28;20169;-68
2022/12/05 04:03:40;;;;;;;7.63;6.55;;;16.30;49.90;;;;;;5014678;28;20614;-68
2022/12/05 04:06:11;;;;;;;7.75;6.53;;;16.30;49.80;;;;;;5014919;28;20207;-68
2022/12/05 04:08:40;;;;;;;7.65;6.45;;;16.30;49.80;;;;;;5016298;28;20219;-68
2022/12/05 04:11:11;;;;;;;8.20;6.57;;;16.30;49.80;;;;;;5014809;28;20247;-68
2022/12/05 04:13:40;;;;;;;8.40;6.45;;;16.30;49.70;;;;;;4998541;28;20193;-68
2022/12/05 04:18:58;;;;;;;8.90;6.20;;;16.30;50.40;;;;;;4997923;28;20287;-68
2022/12/05 04:21:39;;;;;;;8.52;7.05;;;16.30;50.50;;;;;;5014645;28;20205;-68
2022/12/05 04:27:00;;;;;;;7.47;6.63;;;16.30;50.40;;;;;;5014443;28;20600;-68
2022/12/05 04:29:29;;;;;;;7.93;6.38;;;16.30;50.60;;;;;;5014467;28;20247;-68
2022/12/05 04:31:58;;;;;;;6.95;5.93;;;16.40;50.40;;;;;;5015501;28;20197;-68
2022/12/05 04:34:27;;;;;;;7.68;5.93;;;16.40;50.40;;;;;;5014416;28;20244;-68
2022/12/05 04:36:55;;;;;;;7.35;6.47;;;16.40;50.20;;;;;;4998433;28;20203;-68
2022/12/05 04:39:25;;;;;;;6.45;5.72;;;16.40;50.10;;;;;;5014318;28;20718;-68
2022/12/05 04:41:55;;;;;;;7.28;6.00;;;16.40;50.00;;;;;;5016407;28;20229;-67
2022/12/05 04:44:23;;;;;;;7.43;5.88;;;16.50;50.00;;;;;;5014624;28;20213;-68
2022/12/05 04:46:50;;;;;;;6.47;5.43;;;16.50;50.00;;;;;;5014578;28;20207;-68
2022/12/05 04:49:19;;;;;;;6.93;6.20;;;16.60;50.00;;;;;;5013785;28;20572;-68
2022/12/05 04:51:46;;;;;;;6.53;5.82;;;16.60;49.80;;;;;;5014421;28;20232;-68
2022/12/05 04:54:15;;;;;;;7.57;6.20;;;16.60;49.80;;;;;;5014035;28;20207;-68
2022/12/05 04:56:42;;;;;;;7.00;5.85;;;16.60;49.70;;;;;;5014125;28;20204;-68
2022/12/05 04:59:11;;;;;;;5.78;5.10;;;16.70;49.70;;;;;;5015858;28;20208;-68
2022/12/05 05:01:39;;;;;;;7.10;6.03;;;16.70;49.60;;;;;;5014500;28;20266;-69
2022/12/05 05:04:09;;;;;;;7.32;5.50;;;16.70;49.50;;;;;;5015394;28;20216;-69
2022/12/05 05:06:37;;;;;;;8.40;6.43;;;16.70;49.50;;;;;;5014310;28;20203;-69
2022/12/05 05:09:05;;;;;;;6.18;5.45;;;16.70;49.40;;;;;;5013748;28;20212;-69
2022/12/05 05:11:32;;;;;;;6.72;5.80;;;16.70;49.30;;;;;;5015022;28;20216;-69
2022/12/05 05:13:59;;;;;;;7.20;5.65;;;16.70;49.30;;;;;;5014035;28;20192;-69
2022/12/05 05:16:29;;;;;;;7.93;5.60;;;16.70;49.40;;;;;;5014085;28;20215;-69
2022/12/05 05:18:56;;;;;;;7.70;5.82;;;16.70;49.90;;;;;;5015189;28;20209;-69
2022/12/05 05:21:24;;;;;;;6.43;5.72;;;16.70;51.20;;;;;;5014985;28;20204;-69
2022/12/05 05:23:51;;;;;;;8.27;5.95;;;16.70;51.00;;;;;;5014666;28;20220;-70
2022/12/05 05:26:19;;;;;;;5.97;5.38;;;16.70;50.10;;;;;;5015346;28;20292;-70
2022/12/05 05:28:46;;;;;;;8.05;6.10;;;16.80;50.20;;;;;;5015031;28;20222;-70
2022/12/05 05:31:13;;;;;;;7.05;5.45;;;16.80;50.40;;;;;;5016032;28;20215;-70
2022/12/05 05:33:41;;;;;;;6.93;5.70;;;16.80;50.40;;;;;;5017108;28;20208;-69
2022/12/05 05:36:10;;;;;;;7.05;5.90;;;16.80;50.40;;;;;;5014970;28;20227;-69
2022/12/05 05:38:37;;;;;;;6.25;5.38;;;16.80;50.20;;;;;;5015073;28;20279;-69
2022/12/05 05:41:04;;;;;;;7.55;5.35;;;16.80;49.90;;;;;;5013584;28;20201;-69
2022/12/05 05:43:31;;;;;;;7.20;5.75;;;16.80;49.90;;;;;;5013222;28;20271;-69
2022/12/05 05:45:59;;;;;;;6.63;5.05;;;16.80;50.20;;;;;;5013479;28;20263;-69
2022/12/05 05:48:25;;;;;;;5.70;5.05;;;16.90;50.20;;;;;;5013224;28;20196;-69
2022/12/05 05:50:54;;;;;;;6.20;5.18;;;16.90;50.30;;;;;;5014592;28;20660;-69
2022/12/05 05:53:20;;;;;;;8.02;5.20;;;16.90;50.40;;;;;;5013401;28;20192;-69
2022/12/05 05:55:48;;;;;;;5.97;5.32;;;17.00;49.70;;;;;;5013789;28;20565;-69
2022/12/05 05:58:14;;;;;;;7.05;5.38;;;16.90;49.70;;;;;;5013413;28;20239;-69
2022/12/05 06:00:41;;;;;;;6.85;5.55;;;17.00;49.30;;;;;;5012540;28;20207;-69
2022/12/05 06:03:09;;;;;;;5.88;5.28;;;17.00;49.20;;;;;;5013143;28;20208;-69
2022/12/05 06:05:36;;;;;;;5.20;4.70;;;17.00;49.20;;;;;;5013115;28;20211;-70
2022/12/05 06:08:04;;;;;;;6.65;5.15;;;17.00;48.90;;;;;;5013011;28;20200;-69
2022/12/05 06:10:31;;;;;;;5.63;5.10;;;17.00;49.10;;;;;;5002177;28;20225;-70
2022/12/05 06:12:59;;;;;;;5.68;4.90;;;17.00;49.10;;;;;;5010341;28;20219;-69
2022/12/05 06:15:26;;;;;;;5.40;4.72;;;17.00;49.10;;;;;;5012863;28;20197;-69
2022/12/05 06:17:53;;;;;;;5.50;4.93;;;17.10;49.00;;;;;;5012321;28;20200;-69
2022/12/05 06:20:20;;;;;;;6.45;4.90;;;17.10;48.90;;;;;;5012726;28;20232;-70
2022/12/05 06:22:47;;;;;;;5.82;5.10;;;17.10;48.80;;;;;;5013138;28;20255;-69
2022/12/05 06:25:16;;;;;;;5.95;5.35;;;17.10;48.80;;;;;;5012887;28;20236;-69
2022/12/05 06:27:43;;;;;;;5.82;5.22;;;17.10;48.70;;;;;;5012947;28;20664;-69
2022/12/05 06:30:11;;;;;;;5.47;4.93;;;17.10;48.60;;;;;;5014234;28;20216;-69
2022/12/05 06:32:38;;;;;;;5.68;5.10;;;17.10;48.70;;;;;;5014207;28;20193;-69
2022/12/05 06:35:14;;;;;;;6.13;5.10;;;17.10;48.60;;;;;;5013119;28;20192;-69
2022/12/05 06:37:41;;;;;;;5.82;5.05;;;17.20;48.60;;;;;;5012417;28;20204;-68
2022/12/05 06:40:10;;;;;;;6.82;5.32;;;17.20;48.60;;;;;;5013140;28;20216;-69
2022/12/05 06:42:38;;;;;;;5.72;5.07;;;17.20;48.40;;;;;;5010855;28;20201;-69
2022/12/05 06:45:06;;;;;;;5.85;5.25;;;17.20;48.40;;;;;;5012416;28;20702;-69
2022/12/05 06:47:33;;;;;;;6.13;5.20;;;17.20;48.30;;;;;;5013126;28;20215;-69
2022/12/05 06:50:00;;;;;;;6.15;5.55;;;17.20;48.20;;;;;;5013598;28;20308;-69
2022/12/05 06:52:28;;;;;;;5.72;5.13;;;17.20;48.30;;;;;;5013110;28;20267;-69
2022/12/05 06:54:55;;;;;;;6.00;5.05;;;17.20;48.20;;;;;;5014260;28;20211;-69
2022/12/05 06:57:22;;;;;;;6.18;4.90;;;17.20;48.20;;;;;;5012889;28;20668;-69
2022/12/05 06:59:50;;;;;;;7.00;5.60;;;17.20;48.10;;;;;;5012746;28;20232;-68
2022/12/05 07:02:16;;;;;;;5.53;4.63;;;17.30;48.10;;;;;;5013015;28;20192;-68
2022/12/05 07:04:44;;;;;;;5.93;4.70;;;17.30;48.10;;;;;;5012652;28;20676;-68
2022/12/05 07:07:12;;;;;;;5.25;4.75;;;17.30;48.10;;;;;;5012477;28;20652;-68
2022/12/05 07:09:52;;;;;;;6.07;5.10;;;17.30;48.10;;;;;;5012578;28;20225;-68
2022/12/05 07:12:20;;;;;;;6.03;4.85;;;17.30;48.10;;;;;;5016414;28;20222;-69
2022/12/05 07:14:47;;;;;;;5.22;4.72;;;17.30;48.10;;;;;;5016446;28;20196;-69
2022/12/05 07:17:16;;;;;;;7.80;5.47;;;17.30;48.10;;;;;;5000156;28;20287;-69
2022/12/05 07:19:43;;;;;;;5.68;4.82;;;17.30;48.10;;;;;;5017102;28;20209;-68
2022/12/05 07:22:10;;;;;;;6.35;5.20;;;17.30;48.10;;;;;;5017167;28;20201;-68
2022/12/05 07:24:37;;;;;;;6.53;5.28;;;17.30;48.10;;;;;;5016977;28;20579;-69
2022/12/05 07:27:05;;;;;;;5.93;5.32;;;17.40;48.20;;;;;;5016539;28;20284;-69
2022/12/05 07:29:32;;;;;;;5.15;4.43;;;17.30;48.10;;;;;;5015775;28;20220;-69
2022/12/05 07:31:59;;;;;;;7.00;4.85;;;17.40;48.10;;;;;;5017273;28;20193;-69
2022/12/05 07:34:29;;;;;;;6.00;5.07;;;17.40;48.00;;;;;;5015803;28;20197;-69
2022/12/05 07:36:56;;;;;;;5.60;4.80;;;17.40;48.10;;;;;;5016915;28;20247;-69
2022/12/05 07:39:23;;;;;;;6.95;4.90;;;17.50;48.20;;;;;;5016845;28;20713;-69
2022/12/05 07:41:50;;;;;;;6.75;4.82;;;17.40;48.00;;;;;;5016258;28;20201;-69
2022/12/05 07:44:17;;;;;;;6.65;5.32;;;17.40;48.00;;;;;;5015812;28;20378;-69
2022/12/05 07:46:44;;;;;;;6.32;5.32;;;17.40;47.80;;;;;;5015361;28;20559;-69
2022/12/05 07:49:14;;;;;;;5.97;4.93;;;17.50;48.00;;;;;;5015914;28;20311;-69
2022/12/05 07:51:43;;;;;;;5.90;5.05;;;17.40;47.80;;;;;;5015205;28;20197;-68
2022/12/05 07:54:10;;;;;;;5.57;4.65;;;17.50;47.80;;;;;;4999176;28;20296;-68
2022/12/05 07:56:37;;;;;;;5.32;4.82;;;17.50;47.70;;;;;;5015164;28;20201;-68
2022/12/05 07:59:04;;;;;;;5.97;4.90;;;17.50;47.70;;;;;;5014937;28;20220;-69
2022/12/05 08:01:31;;;;;;;5.55;4.93;;;17.50;47.70;;;;;;5015101;28;20203;-69
2022/12/05 08:03:58;;;;;;;5.07;4.50;;;17.50;47.80;;;;;;5015335;28;20205;-69
2022/12/05 08:06:26;;;;;;;5.43;4.93;;;17.60;47.80;;;;;;5015300;28;20307;-69
2022/12/05 08:08:55;;;;;;;5.57;4.88;;;17.60;47.60;;;;;;5015578;28;20224;-69
2022/12/05 08:11:23;;;;;;;5.57;4.90;;;17.60;47.50;;;;;;5015496;28;20549;-69
2022/12/05 08:13:50;;;;;;;5.13;4.63;;;17.70;47.60;;;;;;5015963;28;20205;-69
2022/12/05 08:16:18;;;;;;;8.13;5.20;;;17.70;47.50;;;;;;5017356;28;20617;-70
2022/12/05 08:18:45;;;;;;;5.82;4.88;;;17.70;47.40;;;;;;5015303;28;20228;-68
2022/12/05 08:21:13;;;;;;;5.35;4.35;;;17.80;47.40;;;;;;5014976;28;20207;-68
2022/12/05 08:23:40;;;;;;;6.57;4.95;;;17.70;47.50;;;;;;5015851;28;20197;-68
2022/12/05 08:26:10;;;;;;;5.10;4.60;;;17.70;47.40;;;;;;5016218;28;20686;-68
2022/12/05 08:28:37;;;;;;;5.95;5.05;;;17.70;47.40;;;;;;5014861;28;20558;-69
2022/12/05 08:31:05;;;;;;;5.97;4.70;;;17.70;47.20;;;;;;5014209;28;20200;-69
2022/12/05 08:33:32;;;;;;;6.38;4.90;;;17.70;47.30;;;;;;5014181;28;20197;-69
2022/12/05 08:36:01;;;;;;;5.03;4.43;;;17.70;47.30;;;;;;5014584;28;20201;-68
2022/12/05 08:38:28;;;;;;;5.72;5.00;;;17.70;47.30;;;;;;5014384;28;20724;-68
2022/12/05 08:40:55;;;;;;;5.32;4.82;;;17.70;47.30;;;;;;5014312;28;20204;-69
2022/12/05 08:43:23;;;;;;;5.40;4.82;;;17.70;47.10;;;;;;5014579;28;20569;-69
2022/12/05 08:45:51;;;;;;;5.22;4.72;;;17.70;46.90;;;;;;5015566;28;20223;-69
2022/12/05 08:48:17;;;;;;;5.10;4.60;;;17.80;47.30;;;;;;5015640;28;20239;-68
2022/12/05 08:50:44;;;;;;;5.28;4.78;;;17.80;47.00;;;;;;5014201;28;20205;-68
2022/12/05 08:53:11;;;;;;;5.05;4.57;;;17.80;46.70;;;;;;5014637;28;20200;-69
2022/12/05 08:55:39;;;;;;;5.47;4.97;;;17.90;46.70;;;;;;5013995;28;20260;-69
2022/12/05 08:58:06;;;;;;;5.50;4.85;;;17.90;46.90;;;;;;5014286;28;20609;-69
2022/12/05 09:00:35;;;;;;;5.45;4.47;;;17.90;46.50;;;;;;5013996;28;20229;-69
2022/12/05 09:03:02;;;;;;;5.68;5.07;;;18.00;46.50;;;;;;5014216;28;20204;-69
2022/12/05 09:05:30;;;;;;;5.05;4.55;;;18.00;46.40;;;;;;5013833;28;20713;-69
2022/12/05 09:07:58;;;;;;;5.28;4.78;;;18.00;46.50;;;;;;5014070;28;20255;-69
2022/12/05 09:10:26;;;;;;;5.55;4.43;;;18.10;46.30;;;;;;5013749;28;20753;-69
2022/12/05 09:12:53;;;;;;;5.82;5.10;;;18.10;46.30;;;;;;5013998;28;20670;-68
2022/12/05 09:15:22;;;;;;;4.70;4.22;;;18.10;46.30;;;;;;5013441;28;20594;-68
2022/12/05 09:17:51;;;;;;;4.88;4.35;;;18.10;46.40;;;;;;5013846;28;20218;-68
2022/12/05 09:20:18;;;;;;;6.10;4.78;;;18.10;46.60;;;;;;5013660;28;20235;-68
2022/12/05 09:22:45;;;;;;;5.68;4.47;;;18.10;46.40;;;;;;5014903;28;20189;-68
2022/12/05 09:25:12;;;;;;;4.55;4.10;;;18.10;46.50;;;;;;5013696;28;20230;-68
2022/12/05 09:27:39;;;;;;;4.45;4.05;;;18.10;46.80;;;;;;5013107;28;20675;-69
2022/12/05 09:30:08;;;;;;;4.60;4.20;;;18.00;46.70;;;;;;5014107;28;20627;-69
2022/12/05 09:32:34;;;;;;;4.90;4.40;;;18.00;46.70;;;;;;5013325;28;20736;-69
2022/12/05 09:35:05;;;;;;;5.70;4.57;;;18.00;46.90;;;;;;5012545;28;20197;-69
2022/12/05 09:37:32;;;;;;;5.03;4.40;;;18.00;46.90;;;;;;5013185;28;20292;-69
2022/12/05 09:39:59;;;;;;;5.20;4.70;;;17.90;46.90;;;;;;5012874;28;20319;-68
2022/12/05 09:42:33;;;;;;;4.28;3.88;;;18.00;46.90;;;;;;5014941;28;20204;-69
2022/12/05 09:45:18;;;;;;;4.30;3.90;;;17.90;46.70;;;;;;5013212;28;20216;-69
2022/12/05 09:47:51;;;;;;;4.72;4.32;;;18.00;46.80;;;;;;5012978;28;20213;-69
2022/12/05 09:50:21;;;;;;;4.60;4.18;;;18.00;46.90;;;;;;5012824;28;20227;-69
2022/12/05 09:53:08;;;;;;;5.75;5.03;;;18.00;46.90;;;;;;5013299;28;20651;-69
2022/12/05 09:55:41;;;;;;;5.20;4.70;;;18.00;46.80;;;;;;5011026;28;20644;-69
2022/12/05 09:58:20;;;;;;;4.72;4.32;;;18.00;47.00;;;;;;5013152;28;20205;-69
2022/12/05 10:00:48;;;;;;;5.07;4.45;;;18.00;47.10;;;;;;5012691;28;20192;-69
2022/12/05 10:03:23;;;;;;;5.00;4.50;;;18.00;47.10;;;;;;5012687;28;20650;-69
2022/12/05 10:05:53;;;;;;;5.55;4.30;;;17.90;47.00;;;;;;5014107;28;20215;-69
2022/12/05 10:08:23;;;;;;;4.72;4.22;;;17.90;46.90;;;;;;5013722;28;20200;-69
2022/12/05 10:10:56;;;;;;;4.40;3.97;;;17.90;47.10;;;;;;5013714;28;20248;-69
2022/12/05 10:13:36;;;;;;;4.72;4.30;;;17.90;47.10;;;;;;5012725;28;20663;-69
2022/12/05 10:16:06;;;;;;;4.72;4.20;;;17.90;47.10;;;;;;5013003;28;20180;-69
2022/12/05 10:18:37;;;;;;;4.75;4.10;;;17.90;47.10;;;;;;5013748;28;20223;-69
2022/12/05 10:21:12;;;;;;;5.07;4.57;;;17.90;47.10;;;;;;5012898;28;20207;-69
2022/12/05 10:23:44;;;;;;;4.70;4.30;;;17.90;47.10;;;;;;5013960;28;20187;-69
2022/12/05 10:26:12;;;;;;;5.18;4.30;;;17.90;47.20;;;;;;4996950;28;20690;-69
2022/12/05 10:28:41;;;;;;;4.55;4.10;;;18.00;47.10;;;;;;5012509;28;20223;-69
2022/12/05 10:31:09;;;;;;;4.32;3.92;;;18.10;47.00;;;;;;5012518;28;20781;-69
2022/12/05 10:33:38;;;;;;;4.68;4.22;;;18.10;46.80;;;;;;5012880;28;20243;-69
2022/12/05 10:36:11;;;;;;;5.10;4.32;;;18.10;46.80;;;;;;5012821;28;20671;-69
2022/12/05 10:38:38;;;;;;;6.35;4.10;;;18.10;46.70;;;;;;5013620;28;20299;-69
2022/12/05 10:41:06;;;;;;;4.18;3.78;;;18.10;47.40;;;;;;4996461;28;20205;-69
2022/12/05 10:43:34;;;;;;;4.50;4.10;;;18.10;46.80;;;;;;5012471;28;20200;-69
2022/12/05 10:46:01;;;;;;;3.95;3.65;;;18.10;46.80;;;;;;5014014;28;20250;-69
2022/12/05 10:48:30;;;;;;;4.18;3.78;;;18.10;46.90;;;;;;5016680;28;20208;-69
2022/12/05 10:50:58;;;;;;;4.70;4.15;;;18.10;46.80;;;;;;5018029;28;20243;-70
2022/12/05 10:53:28;;;;;;;3.50;3.20;;;18.10;46.80;;;;;;5016883;28;20201;-69
2022/12/05 10:55:55;;;;;;;5.47;4.25;;;18.20;47.00;;;;;;5018179;28;20201;-70
2022/12/05 10:58:24;;;;;;;4.20;3.80;;;18.20;46.80;;;;;;5019475;28;20212;-69
2022/12/05 11:00:52;;;;;;;4.47;4.05;;;18.20;46.60;;;;;;5016903;28;20200;-69
2022/12/05 11:03:27;;;;;;;4.57;4.18;;;18.30;46.60;;;;;;5016800;28;20200;-69
2022/12/05 11:05:56;;;;;;;4.50;3.95;;;18.30;46.60;;;;;;5016293;28;20641;-69
2022/12/05 11:08:24;;;;;;;3.97;3.60;;;18.40;46.40;;;;;;5016147;28;20243;-69
2022/12/05 11:10:58;;;;;;;4.07;3.67;;;18.50;46.20;;;;;;5016119;28;20730;-69
2022/12/05 11:13:25;;;;;;;4.32;3.92;;;18.50;46.20;;;;;;5017534;28;20246;-69
2022/12/05 11:15:54;;;;;;;4.10;3.58;;;18.50;46.20;;;;;;5017192;28;20189;-69
2022/12/05 11:18:28;;;;;;;4.13;3.65;;;18.50;46.10;;;;;;5016239;28;20212;-69
2022/12/05 11:20:55;;;;;;;3.90;3.60;;;18.60;46.20;;;;;;5017042;28;20216;-69
2022/12/05 11:23:24;;;;;;;4.03;3.63;;;18.60;46.10;;;;;;5015621;28;20197;-69
2022/12/05 11:25:53;;;;;;;3.70;3.40;;;18.60;45.90;;;;;;5015431;28;20212;-69
2022/12/05 11:28:34;;;;;;;4.13;3.72;;;18.70;46.10;;;;;;5015431;28;20641;-69
2022/12/05 11:31:03;;;;;;;4.30;3.90;;;18.70;45.90;;;;;;5016058;28;20197;-69
2022/12/05 11:33:31;;;;;;;4.10;3.70;;;18.70;45.90;;;;;;5015455;28;20201;-69
2022/12/05 11:36:01;;;;;;;3.65;3.35;;;18.80;46.10;;;;;;5016093;28;20718;-70
2022/12/05 11:38:31;;;;;;;4.05;3.75;;;18.70;46.00;;;;;;5015568;28;20204;-69
2022/12/05 11:41:06;;;;;;;3.83;3.47;;;18.70;46.00;;;;;;5015854;28;20278;-70
2022/12/05 11:44:06;;;;;;;4.15;3.50;;;18.70;46.00;;;;;;5015736;28;20204;-69
2022/12/05 11:46:39;;;;;;;3.85;3.55;;;18.80;45.90;;;;;;5006774;28;20236;-69
2022/12/05 11:49:28;;;;;;;3.90;3.50;;;18.80;45.90;;;;;;5015640;28;20217;-70
2022/12/05 11:51:59;;;;;;;4.05;3.70;;;18.90;45.90;;;;;;5001404;28;20200;-69
2022/12/05 11:54:55;;;;;;;4.10;3.70;;;18.90;45.80;;;;;;5015396;28;20211;-69
2022/12/05 11:57:28;;;;;;;3.53;3.25;;;18.90;45.60;;;;;;5000855;28;20297;-69
2022/12/05 12:00:07;;;;;;;3.70;3.30;;;18.90;45.90;;;;;;5015660;28;20224;-69
2022/12/05 12:02:54;;;;;;;3.65;3.35;;;18.90;46.00;;;;;;5015439;28;20665;-69
2022/12/05 12:05:24;;;;;;;3.00;2.80;;;18.90;46.20;;;;;;5015659;28;20212;-69
2022/12/05 12:07:58;;;;;;;2.97;2.78;;;18.90;46.00;;;;;;5015194;28;20211;-69
2022/12/05 12:10:29;;;;;;;2.85;2.65;;;18.90;46.00;;;;;;5015341;28;20228;-70
2022/12/05 12:13:05;;;;;;;3.05;2.75;;;18.90;46.00;;;;;;5015174;28;20200;-70
2022/12/05 12:15:57;;;;;;;3.03;2.83;;;18.90;46.00;;;;;;5015700;28;20193;-70
2022/12/05 12:18:43;;;;;;;3.75;2.80;;;18.90;45.90;;;;;;5014890;28;20208;-70
2022/12/05 12:21:17;;;;;;;2.88;2.67;;;18.90;46.00;;;;;;5017436;28;20173;-70
2022/12/05 12:23:52;;;;;;;3.00;2.70;;;18.90;45.90;;;;;;5015333;28;20204;-68
2022/12/05 12:26:22;;;;;;;3.22;2.92;;;18.90;46.00;;;;;;5016240;28;20219;-67
2022/12/05 12:28:56;;;;;;;3.65;3.08;;;18.90;46.20;;;;;;5015778;28;20692;-67
2022/12/05 12:31:36;;;;;;;2.58;2.38;;;18.90;46.00;;;;;;5015582;28;20484;-68
2022/12/05 12:34:10;;;;;;;3.25;2.45;;;18.90;45.90;;;;;;5015678;28;20243;-69
2022/12/05 12:36:44;;;;;;;3.20;2.90;;;19.00;45.90;;;;;;5017102;28;20192;-68
2022/12/05 12:39:24;;;;;;;3.15;2.50;;;18.90;45.70;;;;;;5015696;28;20231;-68
2022/12/05 12:41:58;;;;;;;3.20;2.90;;;19.00;45.90;;;;;;5015363;28;20184;-68
2022/12/05 12:44:46;;;;;;;2.67;2.47;;;19.00;45.90;;;;;;5014982;28;20201;-68
2022/12/05 12:47:16;;;;;;;3.08;2.75;;;19.00;45.80;;;;;;4986055;28;20702;-68
2022/12/05 12:49:51;;;;;;;2.80;2.60;;;19.00;45.90;;;;;;5014998;28;20311;-68
2022/12/05 12:52:19;;;;;;;3.00;2.70;;;19.00;45.80;;;;;;5014515;28;20282;-68
2022/12/05 12:54:54;;;;;;;2.67;2.47;;;19.00;45.70;;;;;;5014483;28;20200;-68
2022/12/05 12:57:25;;;;;;;3.05;2.75;;;19.00;45.80;;;;;;5014452;28;20188;-68
2022/12/05 13:00:01;;;;;;;2.95;2.75;;;19.00;45.70;;;;;;5015500;28;20216;-68
2022/12/05 13:02:31;;;;;;;3.03;2.80;;;19.00;45.60;;;;;;5014313;28;20198;-68
2022/12/05 13:05:00;;;;;;;2.63;2.42;;;19.00;45.70;;;;;;5013967;28;20228;-68